Terminal Aerodrome Forecast
Issued by NWS

Home | Current Version | Previous Version | Text Only | Print | Product List | Glossary On
Versions: 1 2 3 4 5 6 7 8 9 10 11 12 13 14 15 16 17 18
000
FTUS43 KDTX 292335
TAFDET
TAF
KDET 292335Z 3000/3024 30012G22KT P6SM OVC018
      TEMPO 3000/3004 4SM -SHSN
     FM300400 31017G28KT P6SM -SHSN OVC025
     FM300900 32015G25KT P6SM BKN035
     FM301200 33014G22KT P6SM SCT040
     FM302000 30008KT P6SM FEW040 SCT080=

USA.gov is the U.S. government's official web portal to all federal, state and local government web resources and services.